Time;durP1;ratioP1;P1;durP2;ratioP2;P2;SDS_P1;SDS_P2;PMS_P1;PMS_P2;Temp;Humidity;BMP_temperature;BMP_pressure;BME280_temperature;BME280_humidity;BME280_pressure;Samples;Min_cycle;Max_cycle;Signal;HPM_P1;HPM_P2
2021/12/03 00:00:04;;;;;;;15.55;7.65;;;;;;;;;;5013178;28;94449;-70
2021/12/03 00:02:31;;;;;;;10.55;6.68;;;;;;;;;;5003593;28;92961;-70
2021/12/03 00:04:57;;;;;;;9.75;7.50;;;;;;;;;;5016442;28;92657;-70
2021/12/03 00:07:24;;;;;;;11.98;8.13;;;;;;;;;;5009920;28;94122;-70
2021/12/03 00:09:51;;;;;;;13.35;8.10;;;;;;;;;;5011133;28;94900;-70
2021/12/03 00:12:17;;;;;;;10.48;7.35;;;;;;;;;;5003796;28;96433;-70
2021/12/03 00:14:44;;;;;;;8.98;7.90;;;;;;;;;;4991148;28;94984;-70
2021/12/03 00:17:10;;;;;;;14.40;7.82;;;;;;;;;;5001951;28;92777;-70
2021/12/03 00:19:36;;;;;;;15.90;8.23;;;;;;;;;;5008276;28;94659;-70
2021/12/03 00:22:03;;;;;;;13.68;8.98;;;;;;;;;;5011013;28;93216;-70
2021/12/03 00:24:29;;;;;;;19.75;9.25;;;;;;;;;;5008569;28;94232;-71
2021/12/03 00:26:56;;;;;;;9.77;8.40;;;;;;;;;;5016438;28;93250;-70
2021/12/03 00:29:22;;;;;;;15.13;9.52;;;;;;;;;;5010036;28;92565;-69
2021/12/03 00:31:49;;;;;;;12.68;8.52;;;;;;;;;;5012448;28;93593;-70
2021/12/03 00:34:15;;;;;;;12.98;9.52;;;;;;;;;;5002920;28;95816;-70
2021/12/03 00:36:42;;;;;;;10.57;8.93;;;;;;;;;;5010266;28;92612;-70
2021/12/03 00:39:08;;;;;;;15.23;9.60;;;;;;;;;;5010826;28;93877;-70
2021/12/03 00:41:41;;;;;;;17.75;8.70;;;;;;;;;;5011992;28;94605;-70
2021/12/03 00:44:11;;;;;;;9.85;8.82;;;;;;;;;;5009410;28;92574;-70
2021/12/03 00:46:37;;;;;;;17.23;9.32;;;;;;;;;;5015058;28;93143;-70
2021/12/03 00:49:03;;;;;;;11.57;8.93;;;;;;;;;;5007339;28;93139;-69
2021/12/03 00:51:30;;;;;;;13.63;8.50;;;;;;;;;;5003531;28;94696;-69
2021/12/03 00:53:56;;;;;;;27.20;9.55;;;;;;;;;;4992200;28;94498;-70
2021/12/03 00:56:22;;;;;;;12.45;9.10;;;;;;;;;;5000943;28;92599;-70
2021/12/03 00:58:49;;;;;;;13.43;8.98;;;;;;;;;;5010652;28;94906;-70
2021/12/03 01:01:15;;;;;;;11.25;8.70;;;;;;;;;;5008995;28;93622;-70
2021/12/03 01:03:42;;;;;;;14.13;9.25;;;;;;;;;;5011588;28;92906;-69
2021/12/03 01:06:09;;;;;;;16.77;8.93;;;;;;;;;;5005193;28;93968;-70
2021/12/03 01:08:36;;;;;;;16.10;9.10;;;;;;;;;;4998886;28;93545;-69
2021/12/03 01:11:07;;;;;;;19.05;9.27;;;;;;;;;;4998985;28;94565;-69
2021/12/03 01:13:34;;;;;;;15.50;10.13;;;;;;;;;;5011941;28;95492;-69
2021/12/03 01:16:01;;;;;;;13.18;9.35;;;;;;;;;;5009590;28;91777;-70
2021/12/03 01:18:27;;;;;;;17.02;10.02;;;;;;;;;;5011294;28;92546;-70
2021/12/03 01:20:53;;;;;;;18.13;10.43;;;;;;;;;;5007985;28;93540;-70
2021/12/03 01:23:20;;;;;;;16.25;9.45;;;;;;;;;;5003895;28;95038;-70
2021/12/03 01:25:46;;;;;;;17.60;9.80;;;;;;;;;;5009632;28;96145;-70
2021/12/03 01:28:13;;;;;;;17.17;11.13;;;;;;;;;;5011944;28;94154;-70
2021/12/03 01:30:39;;;;;;;13.95;9.20;;;;;;;;;;5011921;28;92477;-70
2021/12/03 01:33:06;;;;;;;10.50;8.77;;;;;;;;;;5011229;28;94796;-70
2021/12/03 01:35:33;;;;;;;16.17;8.82;;;;;;;;;;5010801;28;92941;-70
2021/12/03 01:37:59;;;;;;;14.02;9.38;;;;;;;;;;5005800;28;93883;-70
2021/12/03 01:40:27;;;;;;;13.52;9.20;;;;;;;;;;5014015;28;93067;-70
2021/12/03 01:42:54;;;;;;;15.10;8.70;;;;;;;;;;5013914;28;92592;-70
2021/12/03 01:45:22;;;;;;;13.95;8.88;;;;;;;;;;5015201;28;94292;-70
2021/12/03 01:47:49;;;;;;;11.80;9.13;;;;;;;;;;5006285;28;95670;-70
2021/12/03 01:50:16;;;;;;;14.75;9.35;;;;;;;;;;5014952;28;92587;-70
2021/12/03 01:52:43;;;;;;;10.02;8.90;;;;;;;;;;5001985;28;93175;-71
2021/12/03 01:55:11;;;;;;;12.63;8.40;;;;;;;;;;5008256;28;93981;-70
2021/12/03 01:57:37;;;;;;;14.88;8.93;;;;;;;;;;5012838;28;93850;-70
2021/12/03 02:00:09;;;;;;;12.20;8.60;;;;;;;;;;5012043;28;94919;-71
2021/12/03 02:02:37;;;;;;;14.30;8.68;;;;;;;;;;5013306;28;92872;-70
2021/12/03 02:05:04;;;;;;;14.77;8.95;;;;;;;;;;5013313;28;93228;-69
2021/12/03 02:07:31;;;;;;;14.98;8.27;;;;;;;;;;5002020;28;94229;-70
2021/12/03 02:09:57;;;;;;;23.08;8.88;;;;;;;;;;5008749;28;94186;-70
2021/12/03 02:12:23;;;;;;;15.98;8.40;;;;;;;;;;5007398;28;95069;-69
2021/12/03 02:14:50;;;;;;;12.27;8.27;;;;;;;;;;5012999;28;93344;-70
2021/12/03 02:17:16;;;;;;;11.77;8.75;;;;;;;;;;5010983;28;93185;-70
2021/12/03 02:19:42;;;;;;;11.30;7.63;;;;;;;;;;5014639;28;94207;-70
2021/12/03 02:22:09;;;;;;;12.23;7.88;;;;;;;;;;4994602;28;92484;-70
2021/12/03 02:24:36;;;;;;;13.98;7.75;;;;;;;;;;4994499;28;94192;-69
2021/12/03 02:27:02;;;;;;;8.05;7.15;;;;;;;;;;5005299;28;94013;-69
2021/12/03 02:29:30;;;;;;;10.48;7.38;;;;;;;;;;5014581;28;92906;-69
2021/12/03 02:31:56;;;;;;;15.55;7.97;;;;;;;;;;5009555;28;94189;-70
2021/12/03 02:34:22;;;;;;;11.80;7.78;;;;;;;;;;5014269;28;94228;-70
2021/12/03 02:36:49;;;;;;;8.23;6.78;;;;;;;;;;5010958;28;95397;-70
2021/12/03 02:39:15;;;;;;;16.75;7.55;;;;;;;;;;5013985;28;94158;-69
2021/12/03 02:41:41;;;;;;;13.10;7.32;;;;;;;;;;5008662;28;94739;-69
2021/12/03 02:44:08;;;;;;;11.90;7.05;;;;;;;;;;5010173;28;93867;-70
2021/12/03 02:46:34;;;;;;;16.13;7.38;;;;;;;;;;5009151;28;93354;-69
2021/12/03 02:49:01;;;;;;;12.60;8.32;;;;;;;;;;5013084;28;92473;-69
2021/12/03 02:51:27;;;;;;;11.02;8.35;;;;;;;;;;5009938;28;93991;-69
2021/12/03 02:53:53;;;;;;;12.05;8.40;;;;;;;;;;5010710;28;93400;-69
2021/12/03 02:56:20;;;;;;;11.00;7.75;;;;;;;;;;5015435;28;92475;-69
2021/12/03 02:58:46;;;;;;;11.05;8.38;;;;;;;;;;5006046;28;96058;-69
2021/12/03 03:01:16;;;;;;;10.23;7.55;;;;;;;;;;5010907;28;94896;-70
2021/12/03 03:03:43;;;;;;;16.90;8.30;;;;;;;;;;5011715;28;96448;-70
2021/12/03 03:06:09;;;;;;;10.73;8.43;;;;;;;;;;5014058;28;94519;-70
2021/12/03 03:08:36;;;;;;;15.02;9.07;;;;;;;;;;5010194;28;92572;-70
2021/12/03 03:11:03;;;;;;;11.05;7.72;;;;;;;;;;5013473;28;93077;-70
2021/12/03 03:13:29;;;;;;;16.27;7.97;;;;;;;;;;5007168;28;93327;-70
2021/12/03 03:15:57;;;;;;;12.25;8.43;;;;;;;;;;5008217;28;93495;-70
2021/12/03 03:18:26;;;;;;;10.30;7.90;;;;;;;;;;5016326;28;93983;-70
2021/12/03 03:20:53;;;;;;;13.48;7.70;;;;;;;;;;5011982;28;92660;-69
2021/12/03 03:23:20;;;;;;;9.75;7.95;;;;;;;;;;5013102;28;93178;-69
2021/12/03 03:25:47;;;;;;;8.32;6.13;;;;;;;;;;5008832;28;95734;-69
2021/12/03 03:28:14;;;;;;;11.13;7.32;;;;;;;;;;5013742;28;93074;-69
2021/12/03 03:30:44;;;;;;;8.15;6.25;;;;;;;;;;5002309;28;93802;-69
2021/12/03 03:33:11;;;;;;;9.05;6.50;;;;;;;;;;5012772;28;93357;-69
2021/12/03 03:35:37;;;;;;;7.07;6.38;;;;;;;;;;5011149;28;93284;-69
2021/12/03 03:38:04;;;;;;;12.25;7.57;;;;;;;;;;5013851;28;94581;-69
2021/12/03 03:40:30;;;;;;;11.55;7.20;;;;;;;;;;5013124;28;94258;-70
2021/12/03 03:42:57;;;;;;;11.15;7.43;;;;;;;;;;5013788;28;93192;-70
2021/12/03 03:45:25;;;;;;;9.32;5.85;;;;;;;;;;5002605;28;93835;-70
2021/12/03 03:47:51;;;;;;;13.20;6.90;;;;;;;;;;5008268;28;92536;-70
2021/12/03 03:50:18;;;;;;;15.90;7.38;;;;;;;;;;5010355;28;94897;-70
2021/12/03 03:52:46;;;;;;;11.75;7.75;;;;;;;;;;5012168;28;94114;-70
2021/12/03 03:55:14;;;;;;;15.25;8.57;;;;;;;;;;5013404;28;92579;-69
2021/12/03 03:57:41;;;;;;;10.77;9.27;;;;;;;;;;5010625;28;93304;-70
2021/12/03 04:00:09;;;;;;;17.17;10.77;;;;;;;;;;5011767;28;95733;-69
2021/12/03 04:02:36;;;;;;;14.65;10.23;;;;;;;;;;5006876;28;93770;-69
2021/12/03 04:05:03;;;;;;;14.30;11.00;;;;;;;;;;5012176;28;94955;-70
2021/12/03 04:07:30;;;;;;;20.45;10.63;;;;;;;;;;5010001;28;92035;-70
2021/12/03 04:09:56;;;;;;;22.80;11.80;;;;;;;;;;5012256;28;92563;-70
2021/12/03 04:12:23;;;;;;;19.30;11.80;;;;;;;;;;5009859;28;94200;-70
2021/12/03 04:14:49;;;;;;;21.13;12.98;;;;;;;;;;5000842;28;95034;-69
2021/12/03 04:17:15;;;;;;;16.35;12.02;;;;;;;;;;5002214;28;95482;-70
2021/12/03 04:19:43;;;;;;;18.38;12.95;;;;;;;;;;5008684;28;93958;-70
2021/12/03 04:22:14;;;;;;;15.80;13.45;;;;;;;;;;5009352;28;93665;-70
2021/12/03 04:24:41;;;;;;;17.67;11.38;;;;;;;;;;5002849;28;93979;-70
2021/12/03 04:27:07;;;;;;;22.58;13.10;;;;;;;;;;4998386;28;93118;-70
2021/12/03 04:29:34;;;;;;;19.58;13.43;;;;;;;;;;4998590;28;93854;-70
2021/12/03 04:32:00;;;;;;;21.60;14.10;;;;;;;;;;4998582;28;92827;-69
2021/12/03 04:34:26;;;;;;;20.88;12.93;;;;;;;;;;5004850;28;94213;-69
2021/12/03 04:36:53;;;;;;;20.40;14.45;;;;;;;;;;5011935;28;94289;-69
2021/12/03 04:39:19;;;;;;;17.88;15.32;;;;;;;;;;5007933;28;96570;-69
2021/12/03 04:41:46;;;;;;;17.73;13.45;;;;;;;;;;5009156;28;92618;-69
2021/12/03 04:44:12;;;;;;;29.30;14.68;;;;;;;;;;5000921;28;93212;-70
2021/12/03 04:46:38;;;;;;;22.70;14.68;;;;;;;;;;5009568;28;93184;-70
2021/12/03 04:49:05;;;;;;;24.90;15.05;;;;;;;;;;5004924;28;94157;-70
2021/12/03 04:51:31;;;;;;;22.77;14.90;;;;;;;;;;5007590;28;93529;-70
2021/12/03 04:53:57;;;;;;;24.10;16.65;;;;;;;;;;5011972;28;92561;-71
2021/12/03 04:56:24;;;;;;;25.77;15.68;;;;;;;;;;5009581;28;93210;-71
2021/12/03 04:58:50;;;;;;;23.50;16.33;;;;;;;;;;5010821;28;94503;-70
2021/12/03 05:01:16;;;;;;;19.95;14.30;;;;;;;;;;5007437;28;92551;-70
2021/12/03 05:03:43;;;;;;;28.63;17.65;;;;;;;;;;5009576;28;95380;-70
2021/12/03 05:06:14;;;;;;;25.35;16.40;;;;;;;;;;5005323;28;94182;-69
2021/12/03 05:08:41;;;;;;;25.08;17.95;;;;;;;;;;5011695;28;93729;-69
2021/12/03 05:11:07;;;;;;;28.10;18.60;;;;;;;;;;5010698;28;94336;-70
2021/12/03 05:13:35;;;;;;;26.58;19.27;;;;;;;;;;5014211;28;92490;-69
2021/12/03 05:16:02;;;;;;;27.73;18.42;;;;;;;;;;5011760;28;92576;-69
2021/12/03 05:18:29;;;;;;;22.40;18.20;;;;;;;;;;5014401;28;94230;-69
2021/12/03 05:20:57;;;;;;;25.98;18.73;;;;;;;;;;5007997;28;91753;-69
2021/12/03 05:23:25;;;;;;;26.35;18.35;;;;;;;;;;5009214;28;93116;-69
2021/12/03 05:25:51;;;;;;;29.17;20.17;;;;;;;;;;5014421;28;93418;-69
2021/12/03 05:28:18;;;;;;;31.58;19.00;;;;;;;;;;5013632;28;94975;-69
2021/12/03 05:30:48;;;;;;;27.83;18.38;;;;;;;;;;5014266;28;94179;-69
2021/12/03 05:33:14;;;;;;;23.73;17.83;;;;;;;;;;5011263;28;92657;-69
2021/12/03 05:35:40;;;;;;;26.70;18.55;;;;;;;;;;5012086;28;93915;-69
2021/12/03 05:38:07;;;;;;;26.00;18.42;;;;;;;;;;5006976;28;94383;-70
2021/12/03 05:40:33;;;;;;;23.38;16.92;;;;;;;;;;5014482;28;92882;-70
2021/12/03 05:43:00;;;;;;;28.05;17.30;;;;;;;;;;5010375;28;94517;-70
2021/12/03 05:45:28;;;;;;;24.08;18.63;;;;;;;;;;5013100;28;92907;-70
2021/12/03 05:47:57;;;;;;;24.02;17.05;;;;;;;;;;5012276;28;92739;-70
2021/12/03 05:50:24;;;;;;;26.42;16.58;;;;;;;;;;5017506;28;94323;-70
2021/12/03 05:52:51;;;;;;;19.00;16.90;;;;;;;;;;5009436;28;95742;-70
2021/12/03 05:55:18;;;;;;;26.42;17.35;;;;;;;;;;5006920;28;96356;-70
2021/12/03 05:57:45;;;;;;;23.45;17.27;;;;;;;;;;5011726;28;94084;-69
2021/12/03 06:00:13;;;;;;;32.95;18.88;;;;;;;;;;4994549;28;94086;-70
2021/12/03 06:02:40;;;;;;;25.08;16.80;;;;;;;;;;4994220;28;93875;-69
2021/12/03 06:05:07;;;;;;;24.55;17.40;;;;;;;;;;5011680;28;93387;-70
2021/12/03 06:07:33;;;;;;;24.83;15.38;;;;;;;;;;5011475;28;92817;-69
2021/12/03 06:10:00;;;;;;;32.85;19.27;;;;;;;;;;5009371;28;94676;-70
2021/12/03 06:12:26;;;;;;;32.70;17.40;;;;;;;;;;5016178;28;92553;-70
2021/12/03 06:14:52;;;;;;;31.60;18.40;;;;;;;;;;5012807;28;94004;-70
2021/12/03 06:17:19;;;;;;;32.35;18.60;;;;;;;;;;4980595;28;96450;-70
2021/12/03 06:19:45;;;;;;;31.77;18.75;;;;;;;;;;4974941;28;92456;-70
2021/12/03 06:22:14;;;;;;;29.17;18.17;;;;;;;;;;4987395;28;94156;-70
2021/12/03 06:24:41;;;;;;;29.60;18.25;;;;;;;;;;5003370;28;94151;-70
2021/12/03 06:27:08;;;;;;;30.00;16.70;;;;;;;;;;5006121;28;92584;-70
2021/12/03 06:29:34;;;;;;;25.55;16.20;;;;;;;;;;5013034;28;93220;-70
2021/12/03 06:32:09;;;;;;;27.40;18.90;;;;;;;;;;5010077;28;93286;-70
2021/12/03 06:34:36;;;;;;;25.45;16.70;;;;;;;;;;5016543;28;91759;-69
2021/12/03 06:37:03;;;;;;;23.63;18.00;;;;;;;;;;5012247;28;94473;-69
2021/12/03 06:39:29;;;;;;;25.58;17.08;;;;;;;;;;5013576;28;92575;-69
2021/12/03 06:41:55;;;;;;;24.48;18.23;;;;;;;;;;5005838;28;94994;-69
2021/12/03 06:44:23;;;;;;;35.85;17.73;;;;;;;;;;4993215;28;94347;-70
2021/12/03 06:46:51;;;;;;;28.88;17.50;;;;;;;;;;4999262;28;92994;-70
2021/12/03 06:49:17;;;;;;;35.88;16.48;;;;;;;;;;5012824;28;93044;-69
2021/12/03 06:51:44;;;;;;;31.45;17.58;;;;;;;;;;5008516;28;94225;-69
2021/12/03 06:54:12;;;;;;;26.50;16.15;;;;;;;;;;5011068;28;92524;-70
2021/12/03 06:56:47;;;;;;;30.08;17.30;;;;;;;;;;5013968;28;94519;-69
2021/12/03 06:59:15;;;;;;;23.83;15.40;;;;;;;;;;5002133;28;91852;-69
2021/12/03 07:01:41;;;;;;;40.38;17.63;;;;;;;;;;5012009;28;93370;-69
2021/12/03 07:04:08;;;;;;;24.63;14.27;;;;;;;;;;5010189;28;94241;-69
2021/12/03 07:06:34;;;;;;;35.20;14.85;;;;;;;;;;5011510;28;94870;-69
2021/12/03 07:09:01;;;;;;;29.92;14.13;;;;;;;;;;5010833;28;96305;-69
2021/12/03 07:11:27;;;;;;;28.27;13.95;;;;;;;;;;5012336;28;94282;-70
2021/12/03 07:13:54;;;;;;;28.05;14.35;;;;;;;;;;4994490;28;93772;-71
2021/12/03 07:16:20;;;;;;;36.95;14.32;;;;;;;;;;5013083;28;93065;-70
2021/12/03 07:18:47;;;;;;;28.45;13.75;;;;;;;;;;5011033;28;93141;-70
2021/12/03 07:21:13;;;;;;;39.50;14.15;;;;;;;;;;5013049;28;93962;-71
2021/12/03 07:23:40;;;;;;;33.58;13.30;;;;;;;;;;5006206;28;93708;-71
2021/12/03 07:26:07;;;;;;;26.25;13.35;;;;;;;;;;5012562;28;92476;-70
2021/12/03 07:28:33;;;;;;;30.35;12.35;;;;;;;;;;5006092;28;92489;-70
2021/12/03 07:31:00;;;;;;;26.73;11.70;;;;;;;;;;5002699;28;96627;-71
2021/12/03 07:33:29;;;;;;;26.30;10.85;;;;;;;;;;5012376;28;93077;-71
2021/12/03 07:35:56;;;;;;;37.88;13.77;;;;;;;;;;5011065;28;94452;-70
2021/12/03 07:38:23;;;;;;;24.00;11.02;;;;;;;;;;5014634;28;93795;-71
2021/12/03 07:40:49;;;;;;;22.70;11.70;;;;;;;;;;5007512;28;93427;-71
2021/12/03 07:43:17;;;;;;;28.27;11.45;;;;;;;;;;4992277;28;94751;-71
2021/12/03 07:45:47;;;;;;;25.45;10.18;;;;;;;;;;4990252;28;92963;-70
2021/12/03 07:48:14;;;;;;;29.25;11.68;;;;;;;;;;4999838;28;92933;-70
2021/12/03 07:50:41;;;;;;;23.48;9.02;;;;;;;;;;4992258;28;94621;-70
2021/12/03 07:53:09;;;;;;;29.83;10.88;;;;;;;;;;4992746;28;92857;-70
2021/12/03 07:55:35;;;;;;;21.40;9.93;;;;;;;;;;4988856;28;94904;-70
2021/12/03 07:58:04;;;;;;;23.45;9.38;;;;;;;;;;5007182;28;94393;-70
2021/12/03 08:00:30;;;;;;;24.08;9.13;;;;;;;;;;5010592;28;92603;-70
2021/12/03 08:03:14;;;;;;;21.88;10.50;;;;;;;;;;4992794;28;93777;-70
2021/12/03 08:05:41;;;;;;;19.95;8.30;;;;;;;;;;5000502;28;92551;-70
2021/12/03 08:08:07;;;;;;;27.45;9.93;;;;;;;;;;5013318;28;94161;-71
2021/12/03 08:10:34;;;;;;;24.15;9.05;;;;;;;;;;5010608;28;94403;-70
2021/12/03 08:13:01;;;;;;;16.88;9.00;;;;;;;;;;4992529;28;92363;-71
2021/12/03 08:15:28;;;;;;;17.30;8.70;;;;;;;;;;5007601;28;92568;-70
2021/12/03 08:17:54;;;;;;;14.00;7.93;;;;;;;;;;5004129;28;94598;-70
2021/12/03 08:20:20;;;;;;;16.58;6.68;;;;;;;;;;5010318;28;94832;-70
2021/12/03 08:22:50;;;;;;;16.90;7.32;;;;;;;;;;5013908;28;96825;-70
2021/12/03 08:25:16;;;;;;;23.33;7.25;;;;;;;;;;4992005;28;92487;-70
2021/12/03 08:27:42;;;;;;;18.50;7.43;;;;;;;;;;4988389;28;93055;-70
2021/12/03 08:30:11;;;;;;;18.52;8.68;;;;;;;;;;4988468;28;93711;-69
2021/12/03 08:32:37;;;;;;;19.02;6.47;;;;;;;;;;5002513;28;92478;-69
2021/12/03 08:35:04;;;;;;;13.80;7.20;;;;;;;;;;4999230;28;94921;-70
2021/12/03 08:37:30;;;;;;;20.33;7.32;;;;;;;;;;4997830;28;95368;-70
2021/12/03 08:39:56;;;;;;;19.35;7.18;;;;;;;;;;5012593;28;93007;-70
2021/12/03 08:42:23;;;;;;;18.25;8.18;;;;;;;;;;4989791;28;93849;-69
2021/12/03 08:44:50;;;;;;;18.83;7.25;;;;;;;;;;4981786;28;96931;-69
2021/12/03 08:47:17;;;;;;;19.08;7.00;;;;;;;;;;5008024;28;96407;-69
2021/12/03 08:49:49;;;;;;;20.42;7.13;;;;;;;;;;4994298;28;94519;-69
2021/12/03 08:54:54;;;;;;;26.85;8.10;;;;;;;;;;4989163;28;94846;-70
2021/12/03 08:57:31;;;;;;;18.98;7.63;;;;;;;;;;4974639;28;94128;-70
2021/12/03 08:59:59;;;;;;;15.52;7.35;;;;;;;;;;4995159;28;94681;-70
2021/12/03 09:02:25;;;;;;;17.95;7.22;;;;;;;;;;4997741;28;93202;-69
2021/12/03 09:04:52;;;;;;;23.38;8.13;;;;;;;;;;4995082;28;94117;-72
2021/12/03 09:07:18;;;;;;;22.90;8.18;;;;;;;;;;4995578;28;93828;-70
2021/12/03 09:09:45;;;;;;;18.30;7.22;;;;;;;;;;4993226;28;97048;-69
2021/12/03 09:12:18;;;;;;;20.95;7.45;;;;;;;;;;4994505;28;93361;-70
2021/12/03 09:15:03;;;;;;;18.85;6.65;;;;;;;;;;4993925;28;93853;-69
2021/12/03 09:22:52;;;;;;;26.77;10.13;;;;;;;;;;4993229;28;94255;-70
2021/12/03 09:25:23;;;;;;;30.48;8.32;;;;;;;;;;4989743;28;94290;-71
2021/12/03 09:27:51;;;;;;;25.80;7.43;;;;;;;;;;5001281;28;91756;-71
2021/12/03 09:30:18;;;;;;;34.00;9.20;;;;;;;;;;4989532;28;94398;-71
2021/12/03 09:32:55;;;;;;;24.05;7.35;;;;;;;;;;4992122;28;92978;-70
2021/12/03 09:35:23;;;;;;;22.92;7.93;;;;;;;;;;5005031;28;95339;-70
2021/12/03 09:37:50;;;;;;;28.13;9.05;;;;;;;;;;5010997;28;94934;-70
2021/12/03 09:40:21;;;;;;;28.77;9.23;;;;;;;;;;5000231;28;92414;-70
2021/12/03 09:42:48;;;;;;;24.60;6.03;;;;;;;;;;4998787;28;94357;-70
2021/12/03 09:45:14;;;;;;;21.92;7.38;;;;;;;;;;5004720;28;93566;-70
2021/12/03 09:47:43;;;;;;;18.83;6.50;;;;;;;;;;4994491;28;92650;-70
2021/12/03 09:50:14;;;;;;;26.77;7.15;;;;;;;;;;4984976;28;93967;-70
2021/12/03 09:55:17;;;;;;;24.13;6.95;;;;;;;;;;4991650;28;93341;-70
2021/12/03 09:58:34;;;;;;;20.27;6.57;;;;;;;;;;4993844;28;93568;-70
2021/12/03 10:11:43;;;;;;;8.88;4.78;;;;;;;;;;4994569;28;93539;-70
2021/12/03 10:14:35;;;;;;;11.82;4.68;;;;;;;;;;4987829;28;93550;-70
2021/12/03 10:20:18;;;;;;;12.25;4.43;;;;;;;;;;4982931;28;92740;-72
2021/12/03 10:41:27;;;;;;;11.13;4.93;;;;;;;;;;4988387;28;94281;-70
2021/12/03 10:49:15;;;;;;;9.32;4.45;;;;;;;;;;5013296;28;94226;-70
2021/12/03 10:54:45;;;;;;;14.15;5.03;;;;;;;;;;5012090;28;94823;-71
2021/12/03 11:00:46;;;;;;;13.55;5.18;;;;;;;;;;4984733;28;92441;-71
2021/12/03 11:20:18;;;;;;;12.73;4.93;;;;;;;;;;4983674;28;93322;-71
2021/12/03 11:28:21;;;;;;;23.83;5.70;;;;;;;;;;4987496;28;94605;-72
2021/12/03 11:36:40;;;;;;;16.20;4.80;;;;;;;;;;4989911;28;94110;-72
2021/12/03 11:40:22;;;;;;;7.93;3.35;;;;;;;;;;5008128;28;94612;-72
2021/12/03 11:48:39;;;;;;;10.93;4.50;;;;;;;;;;4987608;28;123117;-71
2021/12/03 11:54:39;;;;;;;11.75;4.60;;;;;;;;;;4994562;28;96288;-70
2021/12/03 12:02:24;;;;;;;10.57;4.70;;;;;;;;;;4985287;28;94047;-71
2021/12/03 12:18:59;;;;;;;9.02;4.30;;;;;;;;;;4963195;28;96533;-71
2021/12/03 12:22:47;;;;;;;6.70;4.20;;;;;;;;;;4984952;28;93547;-71
2021/12/03 13:29:52;;;;;;;7.03;3.50;;;;;;;;;;4975059;28;92531;-70
2021/12/03 13:33:18;;;;;;;5.50;3.75;;;;;;;;;;4974147;28;93421;-69
2021/12/03 13:59:51;;;;;;;5.57;3.30;;;;;;;;;;5015117;28;93881;-69
2021/12/03 14:21:46;;;;;;;9.65;5.43;;;;;;;;;;4993397;28;94316;-70
2021/12/03 14:28:26;;;;;;;11.90;5.85;;;;;;;;;;4994673;28;91811;-70
2021/12/03 14:31:36;;;;;;;8.90;5.18;;;;;;;;;;4995092;28;92482;-70
2021/12/03 14:43:32;;;;;;;11.43;6.70;;;;;;;;;;4993586;28;94262;-71
2021/12/03 14:57:07;;;;;;;6.57;5.88;;;;;;;;;;4993766;28;92705;-71
2021/12/03 14:59:36;;;;;;;7.70;6.50;;;;;;;;;;4994261;28;95593;-71
2021/12/03 15:02:22;;;;;;;7.65;6.95;;;;;;;;;;4991527;28;95396;-70
2021/12/03 15:07:43;;;;;;;10.73;9.10;;;;;;;;;;4993158;28;95440;-72
2021/12/03 15:10:21;;;;;;;21.95;13.27;;;;;;;;;;4994139;28;92565;-71
2021/12/03 15:21:06;;;;;;;9.63;8.65;;;;;;;;;;4994194;28;94961;-70
2021/12/03 15:23:35;;;;;;;8.82;7.93;;;;;;;;;;4992539;28;94366;-70
2021/12/03 15:26:07;;;;;;;8.95;7.70;;;;;;;;;;4993707;28;92488;-69
2021/12/03 15:55:58;;;;;;;10.95;10.10;;;;;;;;;;4980937;28;94829;-70
2021/12/03 15:58:36;;;;;;;10.68;9.90;;;;;;;;;;4991667;28;93693;-70
2021/12/03 16:04:18;;;;;;;11.35;9.98;;;;;;;;;;4982193;28;93394;-71
2021/12/03 16:53:25;;;;;;;14.82;13.65;;;;;;;;;;4971348;28;92630;-70
2021/12/03 16:56:18;;;;;;;14.15;12.95;;;;;;;;;;4972336;28;94446;-71
2021/12/03 16:58:44;;;;;;;12.05;11.05;;;;;;;;;;4971893;28;93364;-70
2021/12/03 17:01:35;;;;;;;13.20;12.15;;;;;;;;;;4971352;28;92550;-71
2021/12/03 17:12:06;;;;;;;15.25;13.93;;;;;;;;;;4969936;27;93849;-71
2021/12/03 17:49:56;;;;;;;16.63;15.25;;;;;;;;;;4994561;28;94162;-70
2021/12/03 17:55:21;;;;;;;12.60;11.55;;;;;;;;;;5007481;28;94903;-73
2021/12/03 17:58:02;;;;;;;13.98;12.60;;;;;;;;;;5014805;27;92996;-72
2021/12/03 18:03:50;;;;;;;16.75;15.20;;;;;;;;;;4948974;28;93892;-71
2021/12/03 18:09:09;;;;;;;15.10;13.85;;;;;;;;;;4996032;28;94328;-71
2021/12/03 18:52:31;;;;;;;17.42;15.82;;;;;;;;;;4992655;28;93980;-74
2021/12/03 18:55:04;;;;;;;17.55;15.80;;;;;;;;;;4992991;28;94776;-74
2021/12/03 18:57:33;;;;;;;;;;;;;;;;;;4991326;28;93396;-74
2021/12/03 19:00:04;;;;;;;17.63;16.05;;;;;;;;;;4996337;28;122761;-74
2021/12/03 19:02:32;;;;;;;15.77;14.18;;;;;;;;;;4993404;28;93985;-73
2021/12/03 19:05:14;;;;;;;21.35;19.13;;;;;;;;;;4991091;28;95725;-73
2021/12/03 19:10:16;;;;;;;16.13;14.45;;;;;;;;;;4985306;28;92466;-73
2021/12/03 19:12:45;;;;;;;;;;;;;;;;;;4997157;28;93048;-73
2021/12/03 19:15:13;;;;;;;16.70;15.10;;;;;;;;;;4994449;28;109929;-73
2021/12/03 19:17:42;;;;;;;14.63;13.27;;;;;;;;;;4990991;28;93386;-73
2021/12/03 19:20:13;;;;;;;19.70;17.90;;;;;;;;;;5009415;28;94102;-73
2021/12/03 19:22:40;;;;;;;17.75;16.17;;;;;;;;;;4999421;28;93791;-75
2021/12/03 19:25:06;;;;;;;23.98;21.48;;;;;;;;;;4992939;28;92466;-71
2021/12/03 19:27:33;;;;;;;21.17;19.23;;;;;;;;;;4991107;28;93076;-70
2021/12/03 19:30:00;;;;;;;20.60;17.73;;;;;;;;;;4997081;28;95859;-71
2021/12/03 19:32:30;;;;;;;23.67;20.63;;;;;;;;;;4986250;28;96227;-71
2021/12/03 19:35:00;;;;;;;16.75;15.20;;;;;;;;;;5001600;28;93311;-71
2021/12/03 19:37:28;;;;;;;17.65;15.90;;;;;;;;;;5012577;28;92468;-71
2021/12/03 19:39:57;;;;;;;20.02;18.00;;;;;;;;;;5006829;28;94178;-73
2021/12/03 19:42:26;;;;;;;21.27;19.08;;;;;;;;;;4987962;28;93327;-72
2021/12/03 19:44:58;;;;;;;30.42;27.27;;;;;;;;;;4990751;28;93039;-72
2021/12/03 19:47:35;;;;;;;15.57;14.15;;;;;;;;;;4994689;28;94075;-72
2021/12/03 19:50:07;;;;;;;23.52;21.15;;;;;;;;;;4992002;28;92457;-72
2021/12/03 19:52:42;;;;;;;16.80;14.10;;;;;;;;;;4991227;28;94314;-71
2021/12/03 19:55:09;;;;;;;18.45;16.83;;;;;;;;;;4975111;28;95480;-69
2021/12/03 19:57:35;;;;;;;18.92;17.20;;;;;;;;;;4989415;28;92988;-70
2021/12/03 20:00:04;;;;;;;20.42;18.33;;;;;;;;;;4999089;28;94080;-71
2021/12/03 20:02:40;;;;;;;18.65;16.88;;;;;;;;;;5002007;28;93303;-71
2021/12/03 20:05:06;;;;;;;18.67;16.77;;;;;;;;;;5000898;28;93256;-70
2021/12/03 20:07:33;;;;;;;14.93;11.88;;;;;;;;;;4988701;28;94420;-73
2021/12/03 20:10:11;;;;;;;18.98;17.25;;;;;;;;;;5013981;28;93693;-71
2021/12/03 20:12:38;;;;;;;16.95;15.45;;;;;;;;;;4997074;28;94335;-72
2021/12/03 20:15:08;;;;;;;8.73;7.82;;;;;;;;;;5002751;28;93380;-72
2021/12/03 20:17:40;;;;;;;15.32;14.10;;;;;;;;;;4992756;28;95549;-73
2021/12/03 20:20:08;;;;;;;17.50;15.93;;;;;;;;;;4990552;28;95448;-72
2021/12/03 20:33:04;;;;;;;16.55;15.25;;;;;;;;;;4992825;28;92995;-72
2021/12/03 20:38:13;;;;;;;17.52;15.85;;;;;;;;;;4991416;28;91805;-72
2021/12/03 20:40:39;;;;;;;18.15;14.98;;;;;;;;;;4990088;28;93130;-72
2021/12/03 20:43:24;;;;;;;19.08;17.40;;;;;;;;;;4991029;28;94426;-72
2021/12/03 20:46:09;;;;;;;17.55;15.80;;;;;;;;;;4981769;28;96327;-73
2021/12/03 21:09:48;;;;;;;18.58;16.83;;;;;;;;;;4997795;28;94036;-72
2021/12/03 21:12:26;;;;;;;;;;;;;;;;;;4994018;28;96475;-73
2021/12/03 21:15:09;;;;;;;13.70;12.60;;;;;;;;;;5008287;28;92583;-73
2021/12/03 21:17:59;;;;;;;17.27;15.85;;;;;;;;;;5014128;28;93792;-73
2021/12/03 21:20:27;;;;;;;14.65;13.45;;;;;;;;;;4997987;28;93072;-73
2021/12/03 21:23:04;;;;;;;16.55;15.15;;;;;;;;;;4991839;28;94653;-72
2021/12/03 21:25:34;;;;;;;16.13;14.85;;;;;;;;;;4989645;28;94275;-73
2021/12/03 21:38:50;;;;;;;19.42;17.60;;;;;;;;;;4987161;28;96077;-72
2021/12/03 21:41:27;;;;;;;22.17;20.08;;;;;;;;;;4994601;28;96320;-72
2021/12/03 21:43:55;;;;;;;28.35;25.48;;;;;;;;;;4990526;28;94178;-72
2021/12/03 21:46:23;;;;;;;23.23;21.05;;;;;;;;;;4992770;28;94418;-72
2021/12/03 21:48:50;;;;;;;20.85;18.95;;;;;;;;;;4984546;28;92881;-72
2021/12/03 21:51:17;;;;;;;22.60;20.42;;;;;;;;;;4989706;28;94384;-72
2021/12/03 21:53:44;;;;;;;17.20;15.70;;;;;;;;;;4995936;28;93273;-71
2021/12/03 21:56:11;;;;;;;16.38;14.93;;;;;;;;;;4997389;28;92818;-71
2021/12/03 21:58:37;;;;;;;20.20;17.95;;;;;;;;;;4993888;27;94055;-74
2021/12/03 22:01:04;;;;;;;18.60;16.60;;;;;;;;;;4993899;28;93468;-72
2021/12/03 22:03:31;;;;;;;19.92;18.13;;;;;;;;;;5001419;28;94956;-72
2021/12/03 22:05:59;;;;;;;19.33;16.33;;;;;;;;;;5013869;28;94171;-72
2021/12/03 22:08:25;;;;;;;17.95;16.35;;;;;;;;;;5007688;28;92526;-72
2021/12/03 22:10:52;;;;;;;21.77;19.48;;;;;;;;;;5005410;28;94409;-71
2021/12/03 22:13:24;;;;;;;23.00;20.77;;;;;;;;;;5012044;28;93906;-72
2021/12/03 22:15:54;;;;;;;14.50;13.20;;;;;;;;;;5006273;28;92758;-72
2021/12/03 22:18:21;;;;;;;20.33;16.75;;;;;;;;;;4998018;28;93927;-71
2021/12/03 22:20:49;;;;;;;17.33;15.52;;;;;;;;;;5011258;28;91779;-71
2021/12/03 22:23:15;;;;;;;17.90;16.00;;;;;;;;;;5013548;28;92510;-72
2021/12/03 22:25:42;;;;;;;17.10;15.65;;;;;;;;;;5001195;28;93854;-72
2021/12/03 22:28:08;;;;;;;19.40;16.90;;;;;;;;;;4990976;28;95246;-72
2021/12/03 22:30:40;;;;;;;18.45;16.63;;;;;;;;;;4992112;28;96348;-71